Time;durP1;ratioP1;P1;durP2;ratioP2;P2;SDS_P1;SDS_P2;PMS_P1;PMS_P2;Temp;Humidity;BMP_temperature;BMP_pressure;BME280_temperature;BME280_humidity;BME280_pressure;Samples;Min_cycle;Max_cycle;Signal;HPM_P1;HPM_P2
2023/02/11 05:50:17;;;;;;;;;;;;;;;;;;;;;
2023/02/11 12:47:00;;;;;;;69.10;27.95;;;10.60;99.90;;;;;;5073621;23;20218;31
2023/02/11 12:49:06;;;;;;;89.40;45.85;;;10.60;99.90;;;;;;4067301;29;20216;-94
2023/02/11 12:51:49;;;;;;;70.30;32.67;;;10.70;99.90;;;;;;4084864;29;20373;-94
2023/02/11 12:54:11;;;;;;;165.35;70.70;;;10.70;99.90;;;;;;4086157;29;20180;-93
2023/02/11 12:56:15;;;;;;;160.30;77.00;;;10.50;99.90;;;;;;4086521;29;20175;-94
2023/02/11 12:58:22;;;;;;;124.22;41.65;;;10.50;99.90;;;;;;4085979;28;20242;-93
2023/02/11 13:00:45;;;;;;;64.80;28.58;;;10.40;99.90;;;;;;4072056;29;20244;-93
2023/02/11 13:03:04;;;;;;;70.18;29.77;;;10.60;99.90;;;;;;4076538;29;20185;-93
2023/02/11 13:05:36;;;;;;;73.72;29.00;;;10.60;99.90;;;;;;4088720;28;20179;-95
2023/02/11 13:07:43;;;;;;;64.22;28.33;;;10.60;99.90;;;;;;4066308;29;20188;-90
2023/02/11 13:09:52;;;;;;;103.32;32.58;;;10.70;99.90;;;;;;4070846;29;20652;-95
2023/02/11 13:11:56;;;;;;;110.93;36.88;;;10.90;99.90;;;;;;4096486;29;20194;-94
2023/02/11 13:14:23;;;;;;;71.75;29.23;;;11.00;99.90;;;;;;4085056;29;20219;-93
2023/02/11 17:22:13;;;;;;;52.00;32.13;;;10.60;99.90;;;;;;4305650;23;20580;-93
2023/02/11 17:48:10;;;;;;;71.70;36.20;;;10.50;99.90;;;;;;4456062;23;20296;-92
2023/02/11 17:50:30;;;;;;;57.33;33.70;;;10.50;99.90;;;;;;4115883;28;20183;-94
2023/02/11 17:52:42;;;;;;;51.75;32.25;;;10.50;99.90;;;;;;4128760;28;20178;-93
2023/02/11 17:57:20;;;;;;;55.50;34.72;;;10.50;99.90;;;;;;4597067;23;20299;-93
2023/02/11 17:59:45;;;;;;;56.50;37.88;;;10.50;99.90;;;;;;4127903;28;20221;-93
2023/02/11 18:01:58;;;;;;;61.72;33.75;;;10.30;99.90;;;;;;4110969;29;20174;-94
2023/02/11 18:04:31;;;;;;;57.83;33.60;;;10.30;99.90;;;;;;4111275;28;20178;-92
2023/02/11 18:06:46;;;;;;;59.72;34.45;;;10.20;99.90;;;;;;4140102;28;20199;-93
2023/02/11 18:09:06;;;;;;;60.70;34.38;;;10.20;99.90;;;;;;4127241;28;20201;-94
2023/02/11 18:11:20;;;;;;;59.00;33.65;;;10.10;99.90;;;;;;4111545;28;20198;-93
2023/02/11 18:13:22;;;;;;;61.20;33.80;;;10.10;99.90;;;;;;4111350;28;20339;-93
2023/02/11 18:15:23;;;;;;;57.30;35.25;;;10.10;99.90;;;;;;4107908;28;20194;-92
2023/02/11 18:17:40;;;;;;;53.08;32.97;;;10.10;99.90;;;;;;4112612;28;20162;-91
2023/02/11 18:19:46;;;;;;;58.00;33.53;;;10.00;99.90;;;;;;4126465;28;20225;-93
2023/02/11 18:22:03;;;;;;;49.85;31.48;;;10.10;99.90;;;;;;4128015;28;20194;-92
2023/02/11 18:24:24;;;;;;;54.78;32.50;;;10.10;99.90;;;;;;4129573;28;20193;-92
2023/02/11 18:26:32;;;;;;;57.20;32.97;;;10.00;99.90;;;;;;4108150;28;20187;-92
2023/02/11 18:28:41;;;;;;;51.75;32.55;;;10.00;99.90;;;;;;4125228;28;20201;-92
2023/02/11 18:30:48;;;;;;;59.45;34.33;;;10.00;99.90;;;;;;4112452;28;20167;-93
2023/02/11 18:33:44;;;;;;;69.45;37.33;;;10.00;99.90;;;;;;4128007;28;20157;-92
2023/02/11 18:36:50;;;;;;;62.60;35.90;;;10.10;99.90;;;;;;4138613;28;20178;-92
2023/02/11 18:38:55;;;;;;;53.42;32.55;;;10.10;99.90;;;;;;4124462;28;20654;-91
2023/02/11 18:41:21;;;;;;;53.03;31.10;;;10.10;99.90;;;;;;4130467;28;20185;-93
2023/02/11 18:43:23;;;;;;;54.15;32.67;;;10.10;99.90;;;;;;4127157;28;20197;-93
2023/02/11 18:45:27;;;;;;;62.70;35.03;;;10.10;99.90;;;;;;4112685;28;20179;-91
2023/02/11 18:47:47;;;;;;;587.88;335.95;;;10.20;99.90;;;;;;4129678;28;20185;-91
2023/02/11 18:50:00;;;;;;;345.90;166.82;;;10.00;99.90;;;;;;4123220;28;20190;-92
2023/02/11 18:52:06;;;;;;;606.22;307.48;;;9.90;99.90;;;;;;4104389;28;20181;-94
2023/02/11 18:54:41;;;;;;;635.33;302.30;;;9.90;99.90;;;;;;4124003;28;20178;-93
2023/02/11 18:57:09;;;;;;;243.77;105.43;;;10.00;99.90;;;;;;4109588;28;20198;-93
2023/02/11 18:59:17;;;;;;;680.88;323.15;;;10.10;99.90;;;;;;4128895;28;20293;-94
2023/02/11 19:01:26;;;;;;;205.63;106.10;;;10.20;99.90;;;;;;4115529;29;20194;-93
2023/02/11 19:04:01;;;;;;;66.80;38.80;;;10.20;99.90;;;;;;4124186;28;20186;-92
2023/02/11 19:31:16;;;;;;;101.45;66.80;;;10.00;99.90;;;;;;4131692;28;20181;-92
2023/02/11 19:33:42;;;;;;;66.88;39.05;;;9.90;99.90;;;;;;4136889;28;20202;-95
2023/02/11 19:37:00;;;;;;;73.20;43.75;;;10.10;99.90;;;;;;4135364;28;20190;-94
2023/02/11 19:39:05;;;;;;;81.22;46.15;;;9.90;99.90;;;;;;4079101;29;20222;-93
2023/02/11 19:41:28;;;;;;;83.43;45.75;;;10.00;99.90;;;;;;4115461;28;20183;-93
2023/02/11 19:48:33;;;;;;;68.38;38.60;;;10.30;99.90;;;;;;4161676;23;20216;-93
2023/02/11 19:50:37;;;;;;;61.08;35.63;;;10.40;99.90;;;;;;4114572;28;20190;-92
2023/02/11 19:52:54;;;;;;;65.20;35.35;;;10.40;99.90;;;;;;4148360;28;20166;-91
2023/02/11 19:55:45;;;;;;;53.63;34.08;;;10.40;99.90;;;;;;4144846;28;20221;-94
2023/02/11 20:10:13;;;;;;;59.35;34.83;;;10.20;99.90;;;;;;4125057;28;20296;-94
2023/02/11 20:12:13;;;;;;;53.63;33.88;;;10.20;99.90;;;;;;4091210;29;20641;-94
2023/02/11 20:14:14;;;;;;;53.92;34.13;;;10.10;99.90;;;;;;4088050;29;20211;-89
2023/02/11 20:16:17;;;;;;;54.45;34.22;;;10.20;99.90;;;;;;4088620;29;20262;-90
2023/02/11 20:18:19;;;;;;;52.78;33.08;;;10.20;99.90;;;;;;4116522;28;20726;-93
2023/02/11 20:20:19;;;;;;;54.92;33.75;;;10.20;99.90;;;;;;4100001;29;20178;-92
2023/02/11 20:22:20;;;;;;;57.25;34.58;;;10.20;99.90;;;;;;4104736;29;20179;-89
2023/02/11 20:24:22;;;;;;;57.50;34.17;;;10.30;99.90;;;;;;4085354;29;20550;-89
2023/02/11 20:26:44;;;;;;;59.58;34.58;;;10.20;99.90;;;;;;4102676;29;20187;-91
2023/02/11 20:29:00;;;;;;;56.75;33.90;;;10.10;99.90;;;;;;4100798;29;20197;-90
2023/02/11 20:31:05;;;;;;;63.92;34.83;;;10.10;99.90;;;;;;4079399;29;20179;-92
2023/02/11 20:33:06;;;;;;;56.90;34.42;;;10.10;99.90;;;;;;4102152;29;20234;-90
2023/02/11 20:35:12;;;;;;;51.47;32.42;;;10.30;99.90;;;;;;4101482;29;20217;-91
2023/02/11 20:37:16;;;;;;;54.08;33.28;;;10.40;99.90;;;;;;4101657;28;20171;-90
2023/02/11 20:39:17;;;;;;;54.63;33.30;;;10.40;99.90;;;;;;4088155;29;20203;-92
2023/02/11 20:41:22;;;;;;;56.60;34.42;;;10.40;99.90;;;;;;4090851;28;20343;-90
2023/02/11 20:43:40;;;;;;;52.88;32.70;;;10.30;99.90;;;;;;4107004;28;20201;-91
2023/02/11 20:45:47;;;;;;;57.70;32.80;;;10.30;99.90;;;;;;4092948;29;20219;-91
2023/02/11 20:47:53;;;;;;;55.60;33.05;;;10.20;99.90;;;;;;4093057;29;20199;-92
2023/02/11 20:49:56;;;;;;;52.20;32.42;;;10.30;99.90;;;;;;4112774;28;20269;-90
2023/02/11 20:51:57;;;;;;;59.13;34.35;;;10.30;99.90;;;;;;4090172;29;20178;-91
2023/02/11 20:59:02;;;;;;;50.88;29.10;;;10.20;99.90;;;;;;4125018;28;20244;-92
2023/02/11 21:01:08;;;;;;;54.22;30.73;;;10.10;99.90;;;;;;4103709;29;20179;-92
2023/02/11 21:03:13;;;;;;;55.15;31.00;;;10.30;99.90;;;;;;4133550;28;20188;-92
2023/02/11 21:05:15;;;;;;;54.38;28.42;;;10.30;99.90;;;;;;4101610;29;20196;-93
2023/02/11 21:07:20;;;;;;;50.58;31.75;;;10.40;99.90;;;;;;4136667;28;20225;-92
2023/02/11 21:09:24;;;;;;;59.28;32.10;;;10.40;99.90;;;;;;4119851;28;20852;-91
2023/02/11 21:11:24;;;;;;;55.53;32.92;;;10.30;99.90;;;;;;4121710;28;20178;-92
2023/02/11 21:13:52;;;;;;;49.08;29.67;;;10.30;99.90;;;;;;4137850;28;20189;-90
2023/02/11 21:15:56;;;;;;;55.15;29.70;;;10.30;99.90;;;;;;4104792;28;20186;-92
2023/02/11 21:18:04;;;;;;;50.20;28.60;;;10.40;99.90;;;;;;4106558;28;20745;-93
2023/02/11 21:20:16;;;;;;;48.72;28.92;;;10.40;99.90;;;;;;4136665;28;20209;-91
2023/02/11 21:22:19;;;;;;;51.40;30.08;;;10.40;99.90;;;;;;4119409;28;20523;-90
2023/02/11 21:24:22;;;;;;;50.17;28.40;;;10.30;99.90;;;;;;4119801;28;20245;-92
2023/02/11 21:26:30;;;;;;;47.40;26.92;;;10.00;99.90;;;;;;4104556;29;20249;-92
2023/02/11 21:28:39;;;;;;;43.13;26.02;;;10.00;99.90;;;;;;4108969;28;20195;-91
2023/02/11 21:30:44;;;;;;;42.88;26.60;;;10.00;99.90;;;;;;4128456;28;20189;-90
2023/02/11 21:33:03;;;;;;;42.72;26.05;;;10.10;99.90;;;;;;4128227;28;20216;-90
2023/02/11 21:35:04;;;;;;;41.80;25.25;;;10.00;99.90;;;;;;4117069;28;20162;-90
2023/02/11 21:37:05;;;;;;;39.03;25.05;;;10.00;99.90;;;;;;4129063;28;20166;-92
2023/02/11 21:39:12;;;;;;;41.78;25.17;;;10.00;99.90;;;;;;4129765;28;20226;-90
2023/02/11 21:41:35;;;;;;;40.28;25.30;;;10.00;99.90;;;;;;4130731;28;20551;-91
2023/02/11 21:43:36;;;;;;;45.10;26.33;;;10.10;99.90;;;;;;4125505;28;20515;-90
2023/02/11 21:45:42;;;;;;;41.25;25.92;;;10.10;99.90;;;;;;4111376;28;20186;-91
2023/02/11 21:47:54;;;;;;;51.42;29.63;;;10.20;99.90;;;;;;4125200;28;20265;-92
2023/02/11 21:49:55;;;;;;;45.53;28.73;;;10.20;99.90;;;;;;4106666;28;20194;-94
2023/02/11 21:52:19;;;;;;;49.97;29.80;;;10.20;99.90;;;;;;4121279;28;20166;-92
2023/02/11 21:54:28;;;;;;;52.47;30.40;;;10.20;99.90;;;;;;4114044;28;20668;-92
2023/02/11 21:56:36;;;;;;;51.10;30.17;;;10.30;99.90;;;;;;4121311;28;20189;-91
2023/02/11 21:58:40;;;;;;;48.53;28.58;;;10.20;99.90;;;;;;4120795;28;20225;-92
2023/02/11 22:00:41;;;;;;;50.25;29.10;;;10.20;99.90;;;;;;4123303;28;20205;-92
2023/02/11 22:02:45;;;;;;;48.22;28.60;;;10.20;99.90;;;;;;4122508;28;20185;-91
2023/02/11 22:04:46;;;;;;;47.00;28.13;;;10.00;99.90;;;;;;4122373;28;20174;-91
2023/02/11 22:06:46;;;;;;;49.40;28.40;;;10.00;99.90;;;;;;4119108;28;20247;-92
2023/02/11 22:08:48;;;;;;;52.75;30.20;;;10.00;99.90;;;;;;4109440;28;20194;-91
2023/02/11 22:10:56;;;;;;;48.35;30.08;;;10.00;99.90;;;;;;4106800;28;20179;-91
2023/02/11 22:13:08;;;;;;;51.30;28.80;;;10.00;99.90;;;;;;4139006;28;20493;-90
2023/02/11 22:15:12;;;;;;;46.42;29.15;;;10.10;99.90;;;;;;4106949;28;20269;-92
2023/02/11 22:17:13;;;;;;;41.45;26.02;;;10.10;99.90;;;;;;4122056;28;20719;-92
2023/02/11 22:19:18;;;;;;;43.88;26.65;;;10.20;99.90;;;;;;4118480;28;20198;-93
2023/02/11 22:21:39;;;;;;;47.50;26.55;;;10.20;99.90;;;;;;4121857;28;20186;-92
2023/02/11 22:23:40;;;;;;;44.88;25.60;;;10.10;99.90;;;;;;4121417;28;20245;-91
2023/02/11 22:25:56;;;;;;;45.88;26.33;;;10.10;99.90;;;;;;4139510;28;20178;-91
2023/02/11 22:28:04;;;;;;;43.63;25.67;;;10.20;99.90;;;;;;4137735;28;20182;-92
2023/02/11 22:30:10;;;;;;;42.70;23.77;;;10.20;99.90;;;;;;4119604;28;20185;-91
2023/02/11 22:32:16;;;;;;;60.92;29.27;;;10.20;99.90;;;;;;4136567;28;20702;-91
2023/02/11 22:34:19;;;;;;;52.40;29.88;;;10.10;99.90;;;;;;4121753;28;20290;-93
2023/02/11 22:36:33;;;;;;;49.15;27.95;;;10.00;99.90;;;;;;4120165;28;20290;-91
2023/02/11 22:38:36;;;;;;;44.92;25.55;;;10.10;99.90;;;;;;4137155;28;20275;-92
2023/02/11 22:40:47;;;;;;;40.30;24.00;;;10.10;99.90;;;;;;4137880;28;20165;-94
2023/02/11 22:42:57;;;;;;;41.00;23.17;;;10.30;99.90;;;;;;4118891;28;20169;-92
2023/02/11 22:45:14;;;;;;;42.50;23.52;;;10.30;99.90;;;;;;4104561;28;20222;-93
2023/02/11 22:47:22;;;;;;;36.25;20.17;;;10.00;99.90;;;;;;4131050;28;20181;-90
2023/02/11 22:49:40;;;;;;;32.13;18.42;;;9.90;99.90;;;;;;4132995;28;20189;-91
2023/02/11 22:51:46;;;;;;;33.20;20.25;;;10.00;99.90;;;;;;4122689;28;20213;-91
2023/02/11 22:53:57;;;;;;;47.95;26.00;;;10.30;99.90;;;;;;4102735;28;20182;-92
2023/02/11 22:56:12;;;;;;;38.67;21.88;;;10.10;99.90;;;;;;4119772;28;20194;-92
2023/02/11 22:58:13;;;;;;;36.40;21.38;;;9.80;99.90;;;;;;4104332;28;20246;-92
2023/02/11 23:00:14;;;;;;;33.65;19.88;;;9.70;99.90;;;;;;4121384;28;20189;-93
2023/02/11 23:02:22;;;;;;;33.42;20.38;;;9.60;99.90;;;;;;4135676;28;20188;-91
2023/02/11 23:04:42;;;;;;;32.25;19.23;;;9.70;99.90;;;;;;4119156;28;20639;-91
2023/02/11 23:06:46;;;;;;;33.03;18.77;;;9.70;99.90;;;;;;4103911;28;20652;-91
2023/02/11 23:08:53;;;;;;;30.52;18.00;;;9.70;99.90;;;;;;4120211;28;20190;-93
2023/02/11 23:11:12;;;;;;;30.10;17.85;;;9.70;99.90;;;;;;4117550;28;20276;-91
2023/02/11 23:13:13;;;;;;;31.15;18.60;;;9.70;99.90;;;;;;4103700;28;20220;-92
2023/02/11 23:15:14;;;;;;;33.90;18.77;;;9.70;99.90;;;;;;4102334;29;20219;-91
2023/02/11 23:17:18;;;;;;;28.90;18.45;;;9.70;99.90;;;;;;4107072;29;20191;-92
2023/02/11 23:19:20;;;;;;;33.40;20.05;;;9.80;99.90;;;;;;4111972;28;20317;-92
2023/02/11 23:21:30;;;;;;;31.42;20.25;;;9.80;99.90;;;;;;4130733;28;20155;-92
2023/02/11 23:23:35;;;;;;;34.45;19.95;;;9.90;99.90;;;;;;4130870;28;20158;-92
2023/02/11 23:25:44;;;;;;;34.78;20.15;;;9.80;99.90;;;;;;4112231;28;20175;-92
2023/02/11 23:27:45;;;;;;;37.85;19.70;;;10.00;99.90;;;;;;4106807;28;20171;-92
2023/02/11 23:29:57;;;;;;;38.35;20.73;;;9.90;99.90;;;;;;4117526;28;20200;-92
2023/02/11 23:32:22;;;;;;;34.00;20.42;;;9.50;99.90;;;;;;4119885;28;20181;-92
2023/02/11 23:34:24;;;;;;;32.00;20.58;;;9.40;99.90;;;;;;4120046;28;20663;-92
2023/02/11 23:36:29;;;;;;;35.92;20.45;;;9.20;99.90;;;;;;4133351;28;20186;-91
2023/02/11 23:38:34;;;;;;;35.63;20.42;;;9.30;99.90;;;;;;4106274;28;20230;-92
2023/02/11 23:40:42;;;;;;;36.72;20.80;;;9.30;99.90;;;;;;4101446;29;20181;-91
2023/02/11 23:42:50;;;;;;;35.22;20.40;;;9.50;99.90;;;;;;4120858;28;20209;-92
2023/02/11 23:44:51;;;;;;;35.10;20.45;;;9.70;99.90;;;;;;4120441;28;20178;-90
2023/02/11 23:46:53;;;;;;;37.00;20.63;;;9.80;99.90;;;;;;4120036;28;20205;-91
2023/02/11 23:48:54;;;;;;;39.65;21.02;;;9.60;99.90;;;;;;4101685;28;20195;-92
2023/02/11 23:50:57;;;;;;;32.42;20.33;;;9.50;99.90;;;;;;4101995;29;20194;-91
2023/02/11 23:52:58;;;;;;;34.10;20.70;;;9.40;99.90;;;;;;4104275;28;20559;-91
2023/02/11 23:55:02;;;;;;;36.00;20.60;;;9.30;99.90;;;;;;4117327;28;20190;-92
2023/02/11 23:57:03;;;;;;;36.67;20.95;;;9.40;99.90;;;;;;4118014;28;20277;-91
2023/02/11 23:59:17;;;;;;;31.58;19.63;;;9.50;99.90;;;;;;4136218;28;20221;-93
